Chiricana — 3EKU3 — position and weather

sailwx.info

Track history (hours):
 
Tides and Currents Weather Stations Pressure Air Temp Water Temp Dewpoint Dewpoint Depression Visibility Wind Speed Wind Dir Waves Ship Positions

Chiricana

Last reported at 2016-Feb-07 13:32 UTC. Time now 2016-Feb-12 01:27 UTC.
Position N 01°16' E 104°08'.

Length 300 m; draft 11 m.

Type: Ship (hazmat cat A). MMSI: 372829000.

Date/timePositionNaut miles runAvg speedWind from/ knotsBaromVisibWave heightAir tempDewpointWater temp
2016-Feb-07 13:32N 01°16' E 104°08'1212.5
2016-Feb-07 12:34N 01°13' E 103°56'6 6.2
2016-Feb-07 11:33N 01°16' E 103°50'0 0.3
2016-Feb-07 10:33N 01°16' E 103°50'0 0.0
2016-Feb-07 09:32N 01°16' E 103°50'0 0.0
2016-Feb-07 08:29N 01°16' E 103°50'0 0.0
2016-Feb-07 07:32N 01°16' E 103°50'0 0.0
2016-Feb-07 06:29N 01°16' E 103°50'0 0.0
2016-Feb-07 05:29N 01°16' E 103°50'0 0.0
2016-Feb-07 04:29N 01°16' E 103°50'0 0.0
2016-Feb-07 03:32N 01°16' E 103°50'0 0.0
2016-Feb-07 02:29N 01°16' E 103°50'0 0.0
2016-Feb-07 01:29N 01°16' E 103°50'0 0.0
2016-Feb-07 00:23N 01°16' E 103°50'0 0.0
2016-Feb-06 23:29N 01°16' E 103°50'0 0.0
2016-Feb-06 22:32N 01°16' E 103°50'0 0.0
2016-Feb-06 21:29N 01°16' E 103°50'2 1.7
2016-Feb-06 20:33N 01°15' E 103°51'2 1.8
2016-Feb-06 19:33N 01°14' E 103°53'2 1.7
2016-Feb-06 18:33N 01°12' E 103°52'9 8.9
2016-Feb-06 17:33N 01°07' E 103°45'6011.5
2016-Feb-06 12:19N 01°36' E 102°52'2513.0
2016-Feb-06 10:26N 01°46' E 102°30'1113.1
2016-Feb-06 09:33N 01°51' E 102°20'  
Track history (hours):
 
Tides and Currents Weather Stations Pressure Air Temp Water Temp Dewpoint Dewpoint Depression Visibility Wind Speed Wind Dir Waves Ship Positions

Chiricana

Last reported at 2016-Feb-07 13:32 UTC. Time now 2016-Feb-12 01:27 UTC.
Position N 01°16' E 104°08'.

Length 300 m; draft 11 m.

Type: Ship (hazmat cat A). MMSI: 372829000.

Date/timePositionNaut miles runAvg speedWind from/ knotsBaromVisibWave heightAir tempDewpointWater temp
2016-Feb-07 13:32N 01°16' E 104°08'1212.5
2016-Feb-07 12:34N 01°13' E 103°56'6 6.2
2016-Feb-07 11:33N 01°16' E 103°50'0 0.3
2016-Feb-07 10:33N 01°16' E 103°50'0 0.0
2016-Feb-07 09:32N 01°16' E 103°50'0 0.0
2016-Feb-07 08:29N 01°16' E 103°50'0 0.0
2016-Feb-07 07:32N 01°16' E 103°50'0 0.0
2016-Feb-07 06:29N 01°16' E 103°50'0 0.0
2016-Feb-07 05:29N 01°16' E 103°50'0 0.0
2016-Feb-07 04:29N 01°16' E 103°50'0 0.0
2016-Feb-07 03:32N 01°16' E 103°50'0 0.0
2016-Feb-07 02:29N 01°16' E 103°50'0 0.0
2016-Feb-07 01:29N 01°16' E 103°50'0 0.0
2016-Feb-07 00:23N 01°16' E 103°50'0 0.0
2016-Feb-06 23:29N 01°16' E 103°50'0 0.0
2016-Feb-06 22:32N 01°16' E 103°50'0 0.0
2016-Feb-06 21:29N 01°16' E 103°50'2 1.7
2016-Feb-06 20:33N 01°15' E 103°51'2 1.8
2016-Feb-06 19:33N 01°14' E 103°53'2 1.7
2016-Feb-06 18:33N 01°12' E 103°52'9 8.9
2016-Feb-06 17:33N 01°07' E 103°45'6011.5
2016-Feb-06 12:19N 01°36' E 102°52'2513.0
2016-Feb-06 10:26N 01°46' E 102°30'1113.1
2016-Feb-06 09:33N 01°51' E 102°20'  

Dump ship's entire track history